Time;durP1;ratioP1;P1;durP2;ratioP2;P2;SDS_P1;SDS_P2;PMS_P1;PMS_P2;Temp;Humidity;BMP_temperature;BMP_pressure;BME280_temperature;BME280_humidity;BME280_pressure;Samples;Min_cycle;Max_cycle;Signal;HPM_P1;HPM_P2
2024/01/24 00:02:28;;;;;;;4.15;1.35;;;;;;;9.59;100.00;100369.81;12164846;19;20557;-83
2024/01/24 00:06:30;;;;;;;7.40;2.03;;;;;;;9.76;100.00;100373.63;12187629;19;20803;-83
2024/01/24 00:10:32;;;;;;;10.23;1.40;;;;;;;9.80;100.00;100372.06;12186454;19;20010;-82
2024/01/24 00:14:33;;;;;;;7.97;2.05;;;;;;;9.84;100.00;100366.09;12167840;19;20382;-82
2024/01/24 00:18:35;;;;;;;3.20;0.70;;;;;;;9.92;100.00;100366.63;12185657;19;20446;-82
2024/01/24 00:22:37;;;;;;;6.40;1.65;;;;;;;9.98;100.00;100351.94;12183469;19;20013;-82
2024/01/24 00:26:39;;;;;;;10.05;1.83;;;;;;;9.97;100.00;100347.50;12159010;19;20007;-82
2024/01/24 00:30:41;;;;;;;5.95;1.42;;;;;;;10.08;100.00;100369.81;12181834;19;20026;-81
2024/01/24 00:34:43;;;;;;;8.95;1.77;;;;;;;10.06;100.00;100369.22;12185799;19;20022;-83
2024/01/24 00:38:45;;;;;;;7.90;1.95;;;;;;;9.95;100.00;100357.91;12162089;19;20109;-83
2024/01/24 00:42:47;;;;;;;8.93;1.83;;;;;;;9.94;100.00;100350.72;12186212;19;20006;-82
2024/01/24 00:46:48;;;;;;;8.80;2.08;;;;;;;9.91;100.00;100334.69;12179129;19;20003;-81
2024/01/24 00:50:50;;;;;;;9.05;1.77;;;;;;;9.91;100.00;100333.84;12156985;19;21380;-82
2024/01/24 00:54:52;;;;;;;8.15;2.05;;;;;;;9.87;100.00;100333.44;12180007;19;20006;-82
2024/01/24 00:58:54;;;;;;;9.45;1.85;;;;;;;9.86;100.00;100342.78;12176512;19;20011;-81
2024/01/24 01:02:56;;;;;;;13.18;2.10;;;;;;;9.87;100.00;100347.22;12194620;19;20014;-82
2024/01/24 01:06:57;;;;;;;7.50;1.60;;;;;;;9.89;100.00;100353.34;12184679;19;20002;-79
2024/01/24 01:11:00;;;;;;;11.55;3.30;;;;;;;9.87;100.00;100338.94;12176882;19;20025;-80
2024/01/24 01:15:02;;;;;;;6.10;2.05;;;;;;;9.88;100.00;100337.91;12194792;19;20014;-81
2024/01/24 01:19:04;;;;;;;7.10;2.63;;;;;;;9.94;100.00;100341.63;12191118;19;20445;-79
2024/01/24 01:23:06;;;;;;;4.85;1.50;;;;;;;9.94;100.00;100328.72;12172883;19;20434;-82
2024/01/24 01:27:08;;;;;;;11.93;2.38;;;;;;;9.91;100.00;100309.91;12183699;19;20003;-80
2024/01/24 01:31:10;;;;;;;;;;;;;;;9.92;100.00;100311.56;12196079;19;20458;-79
2024/01/24 01:35:12;;;;;;;5.88;1.45;;;;;;;9.93;100.00;100317.91;12173335;19;19952;-79
2024/01/24 01:39:14;;;;;;;14.03;3.07;;;;;;;9.98;100.00;100291.38;12195753;19;20042;-79
2024/01/24 01:43:16;;;;;;;8.05;1.98;;;;;;;9.99;100.00;100279.31;12194812;19;20825;-80
2024/01/24 01:47:28;;;;;;;6.20;2.15;;;;;;;10.07;100.00;100255.25;12186381;19;20006;-79
2024/01/24 01:51:30;;;;;;;7.47;1.30;;;;;;;10.14;100.00;100273.34;12260951;19;20090;-80
2024/01/24 01:55:35;;;;;;;9.57;1.83;;;;;;;10.24;100.00;100270.84;12257938;19;20050;-79
2024/01/24 01:59:40;;;;;;;6.38;1.55;;;;;;;10.33;100.00;100274.13;12197639;19;20011;-78
2024/01/24 02:03:43;;;;;;;6.13;1.63;;;;;;;10.37;100.00;100260.72;12189176;19;20109;-80
2024/01/24 02:07:46;;;;;;;4.60;1.40;;;;;;;10.42;100.00;100274.63;12197736;19;20038;-80
2024/01/24 02:11:48;;;;;;;3.20;1.38;;;;;;;10.49;100.00;100267.06;12212436;19;20014;-80
2024/01/24 02:15:50;;;;;;;6.63;1.60;;;;;;;10.61;100.00;100259.66;12197782;19;20027;-79
2024/01/24 02:19:51;;;;;;;3.78;1.20;;;;;;;10.70;100.00;100251.88;12196143;19;20617;-79
2024/01/24 02:23:55;;;;;;;7.47;1.30;;;;;;;10.75;100.00;100237.38;12175993;19;20023;-80
2024/01/24 02:27:57;;;;;;;2.35;1.27;;;;;;;10.80;100.00;100227.31;12194101;19;21368;-78
2024/01/24 02:31:59;;;;;;;5.82;1.30;;;;;;;10.89;100.00;100244.31;12170309;19;20018;-80
2024/01/24 02:36:01;;;;;;;6.57;1.50;;;;;;;10.94;100.00;100242.50;12193094;19;20720;-79
2024/01/24 02:40:03;;;;;;;6.25;1.40;;;;;;;10.97;100.00;100240.34;12200840;19;20015;-79
2024/01/24 02:44:05;;;;;;;8.10;1.30;;;;;;;10.97;100.00;100241.19;12180220;19;20007;-81
2024/01/24 02:48:07;;;;;;;6.57;1.25;;;;;;;10.92;100.00;100233.66;12200273;19;20010;-81
2024/01/24 02:52:09;;;;;;;3.57;0.93;;;;;;;10.85;100.00;100227.41;12202463;19;20010;-78
2024/01/24 02:56:10;;;;;;;5.40;1.10;;;;;;;10.86;100.00;100208.97;12180596;19;20016;-80
2024/01/24 03:00:13;;;;;;;3.17;0.77;;;;;;;10.91;100.00;100203.53;12199902;19;20025;-80
2024/01/24 03:04:15;;;;;;;3.03;0.80;;;;;;;11.03;100.00;100192.50;12201696;19;20016;-80
2024/01/24 03:08:17;;;;;;;6.07;0.90;;;;;;;11.02;100.00;100202.69;12178527;19;20015;-79
2024/01/24 03:12:19;;;;;;;2.13;0.90;;;;;;;11.13;100.00;100199.06;12203452;19;20395;-80
2024/01/24 03:16:21;;;;;;;5.60;0.90;;;;;;;11.32;100.00;100198.88;12202360;19;20003;-80
2024/01/24 03:20:22;;;;;;;2.95;0.65;;;;;;;11.48;100.00;100200.88;12179245;19;20018;-81
2024/01/24 03:24:24;;;;;;;0.85;0.60;;;;;;;11.63;100.00;100206.69;12188701;19;20533;-80
2024/01/24 03:28:26;;;;;;;1.50;0.60;;;;;;;11.80;100.00;100236.25;12203443;19;20419;-81
2024/01/24 03:32:28;;;;;;;1.88;0.57;;;;;;;11.91;100.00;100248.34;12178486;19;20373;-81
2024/01/24 03:36:30;;;;;;;1.52;0.88;;;;;;;11.97;100.00;100239.06;12194396;19;20416;-78
2024/01/24 03:40:32;;;;;;;3.22;0.63;;;;;;;12.07;100.00;100236.47;12194661;19;20029;-79
2024/01/24 03:44:34;;;;;;;2.65;0.60;;;;;;;12.08;100.00;100252.00;12169321;19;20022;-83
2024/01/24 03:48:36;;;;;;;1.85;0.50;;;;;;;12.05;100.00;100233.16;12194069;19;20010;-81
2024/01/24 03:52:38;;;;;;;1.65;0.57;;;;;;;12.09;100.00;100229.63;12201550;19;20010;-79
2024/01/24 03:56:40;;;;;;;2.80;0.50;;;;;;;12.04;100.00;100214.88;12185029;19;20014;-82
2024/01/24 04:00:42;;;;;;;;;;;;;;;12.07;100.00;100206.09;12212047;19;20065;-80
2024/01/24 04:04:44;;;;;;;2.90;0.50;;;;;;;12.13;100.00;100198.75;12210794;19;19924;-79
2024/01/24 04:08:46;;;;;;;2.28;0.60;;;;;;;12.17;100.00;100200.75;12184601;19;20011;-83
2024/01/24 04:12:48;;;;;;;0.80;0.30;;;;;;;12.12;100.00;100186.84;12204556;19;20010;-81
2024/01/24 04:16:50;;;;;;;0.63;0.50;;;;;;;12.15;100.00;100186.34;12205135;19;20054;-80
2024/01/24 04:20:52;;;;;;;0.70;0.40;;;;;;;12.14;100.00;100168.13;12177674;19;20240;-79
2024/01/24 04:24:53;;;;;;;1.92;0.63;;;;;;;12.21;100.00;100171.53;12200430;19;20746;-80
2024/01/24 04:28:55;;;;;;;0.95;0.40;;;;;;;12.20;100.00;100160.75;12174335;19;20006;-80
2024/01/24 04:32:57;;;;;;;0.75;0.50;;;;;;;12.04;100.00;100148.59;12193562;19;20580;-78
2024/01/24 04:36:59;;;;;;;7.03;0.70;;;;;;;12.15;100.00;100139.38;12228099;19;20010;-79
2024/01/24 04:41:01;;;;;;;1.85;0.30;;;;;;;12.09;100.00;100140.41;12211790;19;20011;-80
2024/01/24 04:45:03;;;;;;;3.38;0.73;;;;;;;12.18;100.00;100140.81;12236490;19;20011;-81
2024/01/24 04:49:04;;;;;;;1.43;0.83;;;;;;;12.15;100.00;100149.59;12230508;19;20003;-82
2024/01/24 04:53:06;;;;;;;1.15;0.52;;;;;;;12.21;100.00;100162.41;12215217;19;20052;-81
2024/01/24 04:57:08;;;;;;;2.25;0.50;;;;;;;12.31;100.00;100190.19;12227875;19;20013;-82
2024/01/24 05:01:11;;;;;;;1.65;0.57;;;;;;;12.35;100.00;100162.91;12230657;19;20061;-81
2024/01/24 05:05:14;;;;;;;2.08;0.55;;;;;;;12.46;100.00;100165.59;12185949;19;20023;-81
2024/01/24 05:09:16;;;;;;;0.98;0.45;;;;;;;12.50;100.00;100160.38;12210555;19;20034;-80
2024/01/24 05:13:18;;;;;;;2.72;0.40;;;;;;;12.47;100.00;100141.53;12214367;19;20007;-82
2024/01/24 05:17:19;;;;;;;3.03;0.43;;;;;;;12.50;100.00;100149.31;12179889;19;20002;-81
2024/01/24 05:21:22;;;;;;;0.40;0.32;;;;;;;12.59;100.00;100147.78;12195288;19;20015;-82
2024/01/24 05:25:23;;;;;;;0.90;0.40;;;;;;;12.57;100.00;100127.00;12201549;19;20046;-82
2024/01/24 05:29:25;;;;;;;1.50;0.30;;;;;;;12.58;100.00;100107.38;12172070;19;20292;-81
2024/01/24 05:33:28;;;;;;;0.30;0.30;;;;;;;12.51;100.00;100113.13;12192287;19;20011;-82
2024/01/24 05:37:30;;;;;;;0.35;0.35;;;;;;;12.57;100.00;100122.31;12196183;19;20474;-82
2024/01/24 05:41:32;;;;;;;0.47;0.30;;;;;;;12.69;100.00;100142.38;12175254;19;20435;-82
2024/01/24 05:45:34;;;;;;;1.70;0.45;;;;;;;12.62;100.00;100114.09;12195936;19;20015;-82
2024/01/24 05:49:38;;;;;;;0.93;0.55;;;;;;;12.69;100.00;100116.66;12188759;19;20261;-82
2024/01/24 05:53:41;;;;;;;0.20;0.20;;;;;;;12.69;100.00;100091.78;12174691;19;20011;-82
2024/01/24 05:57:46;;;;;;;0.77;0.50;;;;;;;12.68;100.00;100103.94;12191349;19;20026;-81
2024/01/24 06:01:48;;;;;;;1.10;0.50;;;;;;;12.71;100.00;100090.44;12193426;19;20015;-81
2024/01/24 06:05:50;;;;;;;0.53;0.30;;;;;;;12.71;100.00;100079.38;12173743;19;20013;-84
2024/01/24 06:09:53;;;;;;;0.43;0.30;;;;;;;12.63;100.00;100077.06;12190398;19;20031;-80
2024/01/24 06:13:55;;;;;;;0.50;0.30;;;;;;;12.64;100.00;100084.28;12179470;19;20002;-79
2024/01/24 06:17:57;;;;;;;0.20;0.20;;;;;;;12.75;100.00;100110.13;12201728;19;20014;-82
2024/01/24 06:21:58;;;;;;;0.40;0.30;;;;;;;12.71;100.00;100118.09;12204439;19;20013;-83
2024/01/24 06:26:01;;;;;;;0.32;0.30;;;;;;;12.80;100.00;100099.13;12202515;19;20796;-82
2024/01/24 06:30:04;;;;;;;0.35;0.30;;;;;;;12.90;100.00;100113.06;12179413;19;20003;-80
2024/01/24 06:34:24;;;;;;;0.30;0.25;;;;;;;12.89;100.00;100110.56;12199442;19;20010;-84
2024/01/24 06:38:26;;;;;;;0.90;0.30;;;;;;;12.78;100.00;100115.13;12185597;19;20011;-81
2024/01/24 06:42:28;;;;;;;0.45;0.20;;;;;;;12.90;100.00;100096.47;12206420;19;20069;-83
2024/01/24 06:46:30;;;;;;;1.08;0.30;;;;;;;12.88;100.00;100073.78;12201934;19;20011;-83
2024/01/24 06:50:32;;;;;;;0.70;0.30;;;;;;;12.91;100.00;100106.47;12182518;19;20023;-82
2024/01/24 06:54:36;;;;;;;0.65;0.30;;;;;;;12.90;100.00;100090.94;12203097;19;20556;-82
2024/01/24 06:58:40;;;;;;;0.35;0.30;;;;;;;12.95;100.00;100109.53;12202030;19;20002;-83
2024/01/24 07:02:42;;;;;;;0.20;0.20;;;;;;;12.89;100.00;100099.50;12179783;19;20014;-82
2024/01/24 07:06:43;;;;;;;0.20;0.20;;;;;;;12.98;100.00;100117.31;12203505;19;20541;-82
2024/01/24 07:10:45;;;;;;;0.30;0.20;;;;;;;13.03;100.00;100119.28;12200501;19;20007;-82
2024/01/24 07:14:50;;;;;;;0.20;0.20;;;;;;;13.08;100.00;100109.13;12180408;19;20050;-81
2024/01/24 07:18:54;;;;;;;0.52;0.30;;;;;;;13.02;100.00;100115.69;12199555;19;20431;-82
2024/01/24 07:22:56;;;;;;;0.25;0.20;;;;;;;12.97;100.00;100126.72;12194801;19;20015;-81
2024/01/24 07:26:58;;;;;;;0.93;0.20;;;;;;;12.94;100.00;100132.78;12165523;19;20023;-84
2024/01/24 07:31:00;;;;;;;0.95;0.30;;;;;;;12.98;100.00;100143.03;12192699;19;20070;-83
2024/01/24 07:35:02;;;;;;;0.20;0.20;;;;;;;12.90;100.00;100165.63;12182809;19;20013;-82
2024/01/24 07:39:04;;;;;;;0.30;0.30;;;;;;;12.80;100.00;100167.44;12187418;19;20039;-82
2024/01/24 07:43:06;;;;;;;0.63;0.40;;;;;;;12.80;100.00;100156.38;12198910;19;20007;-83
2024/01/24 07:47:08;;;;;;;0.37;0.23;;;;;;;12.72;100.00;100193.56;12192816;19;20011;-82
2024/01/24 07:51:10;;;;;;;0.30;0.20;;;;;;;12.64;100.00;100205.94;12201041;19;20017;-81
2024/01/24 07:55:13;;;;;;;0.30;0.30;;;;;;;12.57;100.00;100210.78;12207150;19;20378;-81
2024/01/24 07:59:18;;;;;;;0.22;0.22;;;;;;;12.51;100.00;100211.78;12178729;19;20014;-81
2024/01/24 08:03:20;;;;;;;0.75;0.47;;;;;;;12.50;100.00;100227.53;12201462;19;20006;-81
2024/01/24 08:07:22;;;;;;;;;;;;;;;12.53;100.00;100217.91;12202182;19;20094;-80
2024/01/24 08:11:24;;;;;;;0.90;0.50;;;;;;;12.53;100.00;100207.69;12178375;19;19914;-80
2024/01/24 08:15:27;;;;;;;0.90;0.50;;;;;;;12.60;100.00;100210.28;12199093;19;20113;-81
2024/01/24 08:19:28;;;;;;;0.53;0.30;;;;;;;12.67;100.00;100215.63;12201514;19;20034;-81
2024/01/24 08:23:31;;;;;;;0.93;0.43;;;;;;;12.84;100.00;100232.19;12179504;19;20050;-80
2024/01/24 08:27:47;;;;;;;0.75;0.38;;;;;;;12.94;100.00;100218.53;12199988;19;20006;-82
2024/01/24 08:31:49;;;;;;;1.40;0.40;;;;;;;12.96;100.00;100225.44;12196585;19;20031;-82
2024/01/24 08:35:51;;;;;;;1.05;0.40;;;;;;;13.10;100.00;100225.09;12180340;19;20010;-81
2024/01/24 08:39:52;;;;;;;0.73;0.28;;;;;;;13.18;100.00;100239.31;12199048;19;20002;-82
2024/01/24 08:43:57;;;;;;;1.48;0.50;;;;;;;13.22;100.00;100256.22;12208193;19;20010;-83
2024/01/24 08:47:59;;;;;;;1.95;0.30;;;;;;;13.21;100.00;100255.41;12184814;19;20015;-83
2024/01/24 08:52:02;;;;;;;0.43;0.40;;;;;;;13.30;100.00;100260.53;12229452;19;20064;-83
2024/01/24 08:56:06;;;;;;;0.47;0.30;;;;;;;13.47;100.00;100277.06;12226255;19;20015;-83
2024/01/24 09:00:09;;;;;;;0.90;0.40;;;;;;;13.66;100.00;100290.31;12196778;19;20003;-84
2024/01/24 09:04:12;;;;;;;1.05;0.30;;;;;;;13.78;100.00;100284.66;12204371;19;20006;-82
2024/01/24 09:08:14;;;;;;;0.30;0.30;;;;;;;13.97;100.00;100287.88;12204667;19;20062;-83
2024/01/24 09:12:16;;;;;;;2.13;0.35;;;;;;;14.24;100.00;100304.50;12180959;19;20002;-83
2024/01/24 09:16:18;;;;;;;2.50;0.47;;;;;;;14.50;100.00;100299.22;12202063;19;20512;-83
2024/01/24 09:20:20;;;;;;;1.75;0.30;;;;;;;14.59;100.00;100325.41;12176127;19;20014;-82
2024/01/24 09:24:23;;;;;;;3.47;0.43;;;;;;;14.62;77.29;100337.91;12199708;19;19999;-82
2024/01/24 09:28:25;;;;;;;2.87;1.07;;;;;;;14.54;69.86;100356.69;12196210;19;20021;-81
2024/01/24 09:32:27;;;;;;;2.00;0.57;;;;;;;14.39;70.83;100339.03;12180472;19;20007;-82
2024/01/24 09:36:30;;;;;;;2.23;1.10;;;;;;;14.41;75.00;100345.16;12202545;19;20007;-84
2024/01/24 09:40:32;;;;;;;2.70;0.55;;;;;;;14.36;81.16;100379.22;12204891;19;20126;-80
2024/01/24 09:44:34;;;;;;;2.47;0.47;;;;;;;14.34;83.95;100378.66;12170791;19;20016;-82
2024/01/24 09:48:36;;;;;;;2.85;0.40;;;;;;;14.42;86.52;100383.72;12201955;19;20014;-83
2024/01/24 09:52:39;;;;;;;2.00;0.47;;;;;;;14.40;84.53;100397.00;12203966;19;20427;-80
2024/01/24 09:56:45;;;;;;;3.33;0.47;;;;;;;14.49;82.97;100387.13;12185915;19;20042;-81
2024/01/24 10:00:47;;;;;;;3.58;0.70;;;;;;;14.55;82.19;100386.09;12204992;19;20503;-83
2024/01/24 10:04:52;;;;;;;6.65;0.90;;;;;;;14.66;80.36;100378.69;12202282;19;20010;-85
2024/01/24 10:08:54;;;;;;;;;;;;;;;14.83;76.43;100370.25;12187518;19;20450;-82
2024/01/24 10:12:56;;;;;;;3.47;1.20;;;;;;;14.90;76.31;100401.41;12211786;19;19915;-82
2024/01/24 10:16:58;;;;;;;2.55;0.80;;;;;;;14.99;75.05;100413.69;12216544;19;20504;-85
2024/01/24 10:21:03;;;;;;;2.90;0.65;;;;;;;14.97;76.20;100398.41;12185368;19;20046;-81
2024/01/24 10:25:06;;;;;;;4.15;0.70;;;;;;;14.97;77.41;100382.59;12211091;19;20089;-82
2024/01/24 10:29:08;;;;;;;0.95;0.52;;;;;;;15.03;77.97;100389.03;12212295;19;20022;-81
2024/01/24 10:33:11;;;;;;;1.73;0.80;;;;;;;14.99;72.58;100391.50;12199218;19;20070;-82
2024/01/24 10:37:18;;;;;;;4.32;0.60;;;;;;;14.93;73.72;100400.88;12227806;19;20050;-82
2024/01/24 10:41:23;;;;;;;4.00;1.05;;;;;;;14.89;71.36;100387.78;12205203;19;20038;-82
2024/01/24 10:45:31;;;;;;;5.72;1.10;;;;;;;14.82;71.06;100407.44;12206424;19;20075;-82
2024/01/24 10:49:33;;;;;;;3.67;0.73;;;;;;;14.75;67.46;100412.34;12202963;19;20070;-82
2024/01/24 10:53:36;;;;;;;6.05;1.00;;;;;;;14.72;65.06;100421.19;12178232;19;20010;-80
2024/01/24 10:57:41;;;;;;;7.07;1.20;;;;;;;14.58;64.46;100435.50;12203083;19;20007;-79
2024/01/24 11:01:45;;;;;;;9.38;1.23;;;;;;;14.52;64.18;100428.22;12198435;19;20022;-81
2024/01/24 11:05:50;;;;;;;9.50;1.63;;;;;;;14.55;65.36;100422.16;12189511;19;20011;-84
2024/01/24 11:10:09;;;;;;;8.00;1.30;;;;;;;14.55;65.11;100407.47;12213265;19;20034;-82
2024/01/24 11:14:11;;;;;;;8.05;1.13;;;;;;;14.51;64.74;100422.91;12213858;19;20011;-81
2024/01/24 11:18:31;;;;;;;7.67;2.30;;;;;;;14.38;66.02;100417.78;12188714;19;20010;-84
2024/01/24 11:22:34;;;;;;;7.03;1.52;;;;;;;14.35;65.72;100435.75;12207745;19;20119;-81
2024/01/24 11:26:37;;;;;;;5.65;1.17;;;;;;;14.28;66.44;100430.44;12199146;19;20002;-83
2024/01/24 11:30:39;;;;;;;8.27;1.65;;;;;;;14.28;65.06;100429.59;12214200;19;20139;-85
2024/01/24 11:34:43;;;;;;;5.72;1.40;;;;;;;14.26;65.85;100417.91;12208241;19;20100;-82
2024/01/24 11:38:45;;;;;;;6.97;1.63;;;;;;;14.22;66.29;100414.84;12192143;19;19998;-83
2024/01/24 11:42:55;;;;;;;8.83;2.03;;;;;;;14.28;66.31;100430.44;12207581;19;20010;-83
2024/01/24 11:46:57;;;;;;;6.30;1.23;;;;;;;14.35;65.04;100447.69;12204189;19;22127;-82
2024/01/24 11:51:10;;;;;;;7.65;1.30;;;;;;;14.28;65.65;100451.78;12183487;19;21393;-80
2024/01/24 11:55:12;;;;;;;13.52;2.15;;;;;;;14.23;65.94;100455.31;12203309;19;20033;-84
2024/01/24 11:59:14;;;;;;;8.25;2.15;;;;;;;14.20;64.40;100482.72;12202166;19;20281;-83
2024/01/24 12:03:16;;;;;;;10.00;2.25;;;;;;;14.31;65.28;100488.13;12185949;19;20450;-83
2024/01/24 12:07:19;;;;;;;9.00;1.87;;;;;;;14.52;63.79;100486.47;12207515;19;20101;-83
2024/01/24 12:11:21;;;;;;;9.02;1.85;;;;;;;14.58;62.62;100510.38;12201175;19;20014;-80
2024/01/24 12:15:23;;;;;;;8.07;1.97;;;;;;;14.74;63.41;100493.91;12183515;19;20002;-81
2024/01/24 12:19:25;;;;;;;11.07;2.33;;;;;;;14.89;61.85;100499.63;12201643;19;20492;-82
2024/01/24 12:23:28;;;;;;;7.95;1.92;;;;;;;14.99;60.69;100502.50;12191509;19;20011;-79
2024/01/24 12:27:30;;;;;;;9.77;1.85;;;;;;;15.23;56.40;100504.97;12196460;19;20018;-81
2024/01/24 12:31:32;;;;;;;13.65;2.38;;;;;;;15.08;55.77;100510.34;12201035;19;20024;-81
2024/01/24 12:35:34;;;;;;;8.57;1.90;;;;;;;15.22;53.71;100514.38;12174547;19;20717;-80
2024/01/24 12:39:36;;;;;;;11.23;2.40;;;;;;;15.07;52.85;100528.09;12192056;19;20007;-79
2024/01/24 12:43:38;;;;;;;6.77;2.50;;;;;;;14.92;52.55;100554.59;12197352;19;20007;-81
2024/01/24 12:47:41;;;;;;;10.67;2.30;;;;;;;15.17;52.02;100533.75;12167691;19;20363;-82
2024/01/24 12:51:44;;;;;;;11.73;2.22;;;;;;;15.46;53.56;100549.00;12193350;19;20070;-80
2024/01/24 12:55:46;;;;;;;11.83;1.97;;;;;;;15.53;52.45;100545.19;12199022;19;20028;-80
2024/01/24 12:59:48;;;;;;;13.57;2.67;;;;;;;15.57;52.11;100557.44;12190624;19;20087;-80
2024/01/24 13:03:51;;;;;;;15.57;2.50;;;;;;;15.31;52.20;100548.88;12205428;19;20423;-81
2024/01/24 13:07:53;;;;;;;9.53;2.23;;;;;;;15.02;52.93;100567.72;12212544;19;20010;-82
2024/01/24 13:11:55;;;;;;;10.23;2.10;;;;;;;14.83;51.65;100564.47;12188452;19;20006;-80
2024/01/24 13:15:58;;;;;;;13.52;1.83;;;;;;;14.66;51.41;100572.88;12203940;19;20248;-83
2024/01/24 13:20:04;;;;;;;;;;;;;;;14.59;52.52;100572.25;12207528;19;20002;-82
2024/01/24 13:24:07;;;;;;;11.90;2.40;;;;;;;14.53;51.77;100568.56;12180858;19;20327;-79
2024/01/24 13:28:09;;;;;;;10.73;2.03;;;;;;;14.53;52.06;100579.66;12212717;19;22135;-80
2024/01/24 13:32:13;;;;;;;13.23;2.25;;;;;;;14.30;52.69;100594.53;12215191;19;20056;-82
2024/01/24 13:36:16;;;;;;;14.45;2.65;;;;;;;14.27;52.97;100594.22;12186199;19;20410;-84
2024/01/24 13:40:18;;;;;;;11.73;2.60;;;;;;;14.18;52.91;100584.66;12197318;19;20011;-84
2024/01/24 13:44:20;;;;;;;13.23;2.67;;;;;;;14.27;53.57;100594.22;12199894;19;20010;-79
2024/01/24 13:48:22;;;;;;;9.90;2.17;;;;;;;14.32;52.73;100603.47;12174117;19;20655;-82
2024/01/24 13:52:24;;;;;;;12.17;2.30;;;;;;;14.25;52.79;100601.97;12194275;19;20327;-82
2024/01/24 13:56:26;;;;;;;15.95;2.97;;;;;;;14.18;53.85;100602.13;12199309;19;20018;-82
2024/01/24 14:00:28;;;;;;;17.92;2.60;;;;;;;14.19;53.76;100628.78;12181674;19;20007;-82
2024/01/24 14:04:30;;;;;;;16.42;2.47;;;;;;;14.26;53.13;100611.97;12193878;19;20002;-82
2024/01/24 14:08:33;;;;;;;13.63;2.93;;;;;;;14.38;52.63;100621.00;12182161;19;20440;-81
2024/01/24 14:12:35;;;;;;;18.20;2.85;;;;;;;14.29;53.33;100625.31;12189798;19;20021;-82
2024/01/24 14:16:36;;;;;;;11.75;2.50;;;;;;;14.28;51.84;100621.72;12186516;19;20007;-83
2024/01/24 14:20:42;;;;;;;18.95;3.05;;;;;;;14.35;52.72;100622.34;12168840;19;20102;-80
2024/01/24 14:24:44;;;;;;;;;;;;;;;14.34;53.35;100626.22;12197046;19;20006;-81
2024/01/24 14:28:46;;;;;;;14.68;3.25;;;;;;;14.21;53.90;100617.41;12189101;19;19918;-81
2024/01/24 14:32:48;;;;;;;15.32;2.10;;;;;;;14.04;54.27;100632.16;12168361;19;20106;-82
2024/01/24 14:36:50;;;;;;;12.00;2.67;;;;;;;13.79;54.76;100632.56;12205103;19;20002;-81
2024/01/24 14:41:04;;;;;;;18.15;3.40;;;;;;;13.57;55.17;100646.31;12201406;19;20078;-82
2024/01/24 14:45:06;;;;;;;18.47;3.83;;;;;;;13.57;55.59;100660.16;12179809;19;20390;-79
2024/01/24 14:49:09;;;;;;;11.63;3.23;;;;;;;13.44;56.66;100660.44;12192911;19;20047;-80
2024/01/24 14:53:11;;;;;;;9.10;2.92;;;;;;;13.44;57.25;100674.28;12196422;19;20726;-80
2024/01/24 14:57:12;;;;;;;22.93;4.20;;;;;;;13.40;57.05;100667.56;12175348;19;20115;-81
2024/01/24 15:01:18;;;;;;;17.50;2.97;;;;;;;13.22;57.78;100669.41;12200212;19;20288;-79
2024/01/24 15:05:20;;;;;;;16.25;2.88;;;;;;;13.17;58.77;100674.84;12203262;19;20002;-79
2024/01/24 15:09:22;;;;;;;18.17;4.40;;;;;;;13.07;59.07;100676.59;12185026;19;20030;-80
2024/01/24 15:13:23;;;;;;;18.85;4.00;;;;;;;12.93;59.25;100676.00;12201511;19;20038;-80
2024/01/24 15:17:26;;;;;;;18.00;2.92;;;;;;;12.81;59.63;100689.84;12202104;19;20007;-81
2024/01/24 15:21:28;;;;;;;17.45;3.30;;;;;;;12.70;59.64;100694.34;12181662;19;20358;-80
2024/01/24 15:25:33;;;;;;;10.73;3.25;;;;;;;12.59;60.01;100716.47;12203046;19;20388;-81
2024/01/24 15:29:35;;;;;;;20.00;3.05;;;;;;;12.53;59.79;100704.44;12192642;19;20055;-79
2024/01/24 15:33:37;;;;;;;14.73;2.97;;;;;;;12.47;60.37;100699.88;12241275;19;20011;-80
2024/01/24 15:37:40;;;;;;;15.57;3.28;;;;;;;12.35;60.40;100710.94;12244417;19;20035;-80
2024/01/24 15:41:42;;;;;;;24.77;3.87;;;;;;;12.36;60.24;100725.59;12190767;19;20017;-80
2024/01/24 15:45:44;;;;;;;19.57;3.37;;;;;;;12.27;60.77;100727.88;12198201;19;20007;-79
2024/01/24 15:49:46;;;;;;;14.95;3.85;;;;;;;12.16;61.17;100748.88;12193857;19;20027;-78
2024/01/24 15:53:48;;;;;;;13.48;2.70;;;;;;;12.06;61.69;100759.66;12180108;19;20008;-80
2024/01/24 15:57:50;;;;;;;13.75;2.55;;;;;;;11.98;61.94;100765.53;12202950;19;20335;-80
2024/01/24 16:01:52;;;;;;;15.55;3.17;;;;;;;11.82;62.98;100762.31;12207737;19;20006;-80
2024/01/24 16:05:54;;;;;;;17.58;3.33;;;;;;;11.70;63.86;100766.97;12186752;19;20023;-81
2024/01/24 16:09:56;;;;;;;14.33;4.23;;;;;;;11.62;64.48;100764.53;12209156;19;20404;-81
2024/01/24 16:13:58;;;;;;;16.63;2.90;;;;;;;11.54;65.33;100767.59;12210276;19;20007;-80
2024/01/24 16:18:00;;;;;;;14.70;2.80;;;;;;;11.44;66.42;100781.13;12190563;19;20059;-79
2024/01/24 16:22:03;;;;;;;14.73;2.77;;;;;;;11.39;66.78;100790.09;12240057;19;20299;-79
2024/01/24 16:26:04;;;;;;;17.15;3.35;;;;;;;11.40;67.30;100791.78;12266110;19;20034;-79
2024/01/24 16:30:07;;;;;;;20.48;3.58;;;;;;;11.37;67.58;100795.00;12237193;19;20069;-80
2024/01/24 16:34:09;;;;;;;15.27;2.83;;;;;;;11.35;69.04;100811.78;12228833;19;20404;-80
2024/01/24 16:38:11;;;;;;;12.32;2.83;;;;;;;11.39;69.87;100823.19;12203988;19;20003;-81
2024/01/24 16:42:13;;;;;;;12.63;3.45;;;;;;;11.46;69.82;100801.06;12182614;19;20556;-80
2024/01/24 16:46:16;;;;;;;17.50;2.88;;;;;;;11.47;70.69;100809.09;12203845;19;19998;-80
2024/01/24 16:50:18;;;;;;;24.75;3.60;;;;;;;11.50;70.94;100814.16;12196987;19;20013;-80
2024/01/24 16:54:20;;;;;;;20.27;3.58;;;;;;;11.52;70.86;100823.06;12180216;19;20010;-81
2024/01/24 16:58:22;;;;;;;17.10;3.50;;;;;;;11.51;71.46;100837.94;12201106;19;20010;-80
2024/01/24 17:02:24;;;;;;;16.63;3.15;;;;;;;11.51;71.54;100837.06;12200590;19;20010;-80
2024/01/24 17:06:43;;;;;;;20.48;3.55;;;;;;;11.50;71.95;100852.78;12180055;19;20007;-80
2024/01/24 17:10:46;;;;;;;14.98;3.15;;;;;;;11.50;72.05;100850.03;12198621;19;20067;-80
2024/01/24 17:14:48;;;;;;;29.05;3.60;;;;;;;11.49;72.07;100853.88;12180843;19;20372;-80
2024/01/24 17:18:50;;;;;;;19.33;2.70;;;;;;;11.49;72.11;100861.31;12203277;19;20002;-82
2024/01/24 17:22:52;;;;;;;13.27;3.92;;;;;;;11.46;72.54;100856.25;12199563;19;20010;-80
2024/01/24 17:26:53;;;;;;;17.98;4.18;;;;;;;11.44;72.70;100859.25;12179967;19;20011;-81
2024/01/24 17:30:55;;;;;;;15.82;2.72;;;;;;;11.46;72.39;100862.63;12197475;19;20007;-80
2024/01/24 17:34:58;;;;;;;15.03;2.67;;;;;;;11.45;72.35;100868.34;12194675;19;20011;-80
2024/01/24 17:39:01;;;;;;;12.88;2.80;;;;;;;11.46;72.28;100868.16;12175264;19;20023;-80
2024/01/24 17:43:03;;;;;;;14.95;3.63;;;;;;;11.44;72.24;100877.72;12199212;19;20879;-81
2024/01/24 17:47:05;;;;;;;13.45;3.25;;;;;;;11.41;72.19;100876.25;12196991;19;20018;-81
2024/01/24 17:51:07;;;;;;;12.80;4.17;;;;;;;11.37;72.38;100883.31;12169429;19;20019;-79
2024/01/24 17:55:09;;;;;;;11.57;3.55;;;;;;;11.34;72.50;100892.91;12199886;19;20010;-79
2024/01/24 17:59:11;;;;;;;12.68;2.80;;;;;;;11.32;72.63;100899.72;12198397;19;20007;-80
2024/01/24 18:03:14;;;;;;;17.17;3.70;;;;;;;11.31;72.55;100901.63;12180945;19;20117;-80
2024/01/24 18:07:16;;;;;;;15.27;3.05;;;;;;;11.32;72.29;100897.78;12196869;19;20011;-80
2024/01/24 18:11:20;;;;;;;19.02;3.13;;;;;;;11.27;72.58;100894.88;12206410;19;20003;-81
2024/01/24 18:15:24;;;;;;;25.00;3.58;;;;;;;11.25;72.57;100897.03;12190007;19;20006;-80
2024/01/24 18:19:30;;;;;;;12.40;2.85;;;;;;;11.18;72.59;100904.50;12210977;19;20014;-79
2024/01/24 18:23:32;;;;;;;14.63;3.50;;;;;;;11.17;72.79;100908.34;12212798;19;20018;-79
2024/01/24 18:27:34;;;;;;;20.35;3.10;;;;;;;11.15;72.90;100902.22;12187222;19;20102;-80